Time;durP1;ratioP1;P1;durP2;ratioP2;P2;SDS_P1;SDS_P2;PMS_P1;PMS_P2;Temp;Humidity;BMP_temperature;BMP_pressure;BME280_temperature;BME280_humidity;BME280_pressure;Samples;Min_cycle;Max_cycle;Signal;HPM_P1;HPM_P2
2021/10/24 00:01:24;;;;;;;11.30;5.00;;;;;;;3.80;77.00;100054.92;235671;1190;22436;-75
2021/10/24 00:06:27;;;;;;;10.00;4.90;;;;;;;3.75;76.96;100058.74;235940;1197;24123;-75
2021/10/24 00:11:30;;;;;;;12.90;5.20;;;;;;;3.63;77.03;100064.42;235766;1190;24040;-75
2021/10/24 00:16:34;;;;;;;9.90;5.10;;;;;;;3.50;77.26;100069.08;235889;1197;24143;-75
2021/10/24 00:21:50;;;;;;;11.90;5.40;;;;;;;3.41;77.46;100068.14;235895;1197;22419;-75
2021/10/24 00:27:11;;;;;;;9.50;4.90;;;;;;;3.27;77.31;100075.88;235720;1197;24029;-77
2021/10/24 00:32:27;;;;;;;11.60;5.80;;;;;;;3.13;77.57;100075.09;235935;1197;22595;-73
2021/10/24 00:37:29;;;;;;;10.50;5.40;;;;;;;3.04;77.66;100067.35;235665;1197;25309;-74
2021/10/24 00:42:32;;;;;;;12.30;6.10;;;;;;;3.00;78.00;100066.14;235864;1197;24005;-73
2021/10/24 00:47:35;;;;;;;12.00;5.70;;;;;;;2.93;78.06;100069.80;235772;1197;24117;-75
2021/10/24 00:52:41;;;;;;;14.30;5.90;;;;;;;2.86;78.32;100068.10;235963;1197;24037;-72
2021/10/24 00:57:43;;;;;;;11.90;5.70;;;;;;;2.78;78.32;100080.13;235799;1197;24151;-74
2021/10/24 01:02:50;;;;;;;12.80;5.60;;;;;;;2.64;78.09;100078.34;235864;1197;24050;-75
2021/10/24 01:07:55;;;;;;;9.60;4.70;;;;;;;2.46;77.82;100072.88;235776;1197;24081;-75
2021/10/24 01:12:58;;;;;;;11.10;6.10;;;;;;;2.32;78.15;100073.12;235786;1198;24040;-74
2021/10/24 01:18:02;;;;;;;12.50;5.40;;;;;;;2.23;78.36;100078.27;235794;1198;24162;-75
2021/10/24 01:23:11;;;;;;;12.50;5.70;;;;;;;2.13;78.51;100080.85;235717;1190;24693;-75
2021/10/24 01:28:14;;;;;;;13.40;5.70;;;;;;;2.04;78.71;100081.21;235470;1190;24027;-75
2021/10/24 01:33:18;;;;;;;13.10;6.50;;;;;;;1.96;78.95;100085.41;235685;1190;24084;-75
2021/10/24 01:38:23;;;;;;;12.50;6.70;;;;;;;1.88;79.00;100090.11;235901;1198;22559;-75
2021/10/24 01:43:28;;;;;;;14.30;6.80;;;;;;;1.84;79.19;100094.86;235787;1197;24930;-75
2021/10/24 01:48:41;;;;;;;11.40;5.20;;;;;;;1.80;79.39;100088.66;235999;1190;22418;-75
2021/10/24 01:53:59;;;;;;;11.10;6.10;;;;;;;1.76;79.44;100097.52;235941;1190;23982;-73
2021/10/24 01:59:03;;;;;;;13.30;5.70;;;;;;;1.69;79.52;100091.19;235874;1190;24184;-75
2021/10/24 02:04:24;;;;;;;13.20;7.30;;;;;;;1.62;79.75;100101.15;235805;1197;24085;-73
2021/10/24 02:09:54;;;;;;;14.50;6.10;;;;;;;1.58;80.00;100105.81;235753;1197;24057;-74
2021/10/24 02:15:15;;;;;;;10.80;6.10;;;;;;;1.54;80.00;100100.10;235791;1197;24047;-76
2021/10/24 02:20:17;;;;;;;9.70;6.00;;;;;;;1.52;80.14;100102.89;235617;1196;22549;-76
2021/10/24 02:25:20;;;;;;;16.10;7.00;;;;;;;1.52;80.12;100104.55;235821;1190;24117;-73
2021/10/24 02:30:25;;;;;;;17.50;7.40;;;;;;;1.49;80.46;100100.35;235796;1197;22677;-76
2021/10/24 02:35:32;;;;;;;17.00;7.50;;;;;;;1.45;80.57;100099.36;235904;1198;24056;-73
2021/10/24 02:40:34;;;;;;;16.40;7.90;;;;;;;1.40;80.68;100099.02;236037;1197;22494;-73
2021/10/24 02:45:39;;;;;;;17.20;7.90;;;;;;;1.40;80.62;100105.64;236008;1197;22420;-74
2021/10/24 02:50:43;;;;;;;15.50;7.00;;;;;;;1.40;80.90;100108.44;235839;1198;22419;-75
2021/10/24 02:55:48;;;;;;;17.70;7.70;;;;;;;1.39;80.95;100107.17;235816;1195;22451;-73
2021/10/24 03:00:51;;;;;;;22.30;11.60;;;;;;;1.39;80.90;100105.89;235870;1197;24122;-75
2021/10/24 03:06:00;;;;;;;22.30;11.80;;;;;;;1.35;80.81;100091.27;235747;1197;24181;-75
2021/10/24 03:11:04;;;;;;;20.80;11.70;;;;;;;1.34;81.18;100105.85;235770;1198;24151;-76
2021/10/24 03:16:20;;;;;;;15.90;8.40;;;;;;;1.35;81.17;100111.95;235733;1183;24248;-76
2021/10/24 03:21:33;;;;;;;19.30;7.70;;;;;;;1.30;80.97;100107.38;235701;1197;24075;-75
2021/10/24 03:26:49;;;;;;;15.70;8.20;;;;;;;1.25;81.07;100110.17;235698;1193;25204;-75
2021/10/24 03:31:52;;;;;;;15.50;8.40;;;;;;;1.19;80.82;100111.24;235690;1197;22415;-73
2021/10/24 03:36:55;;;;;;;19.10;8.60;;;;;;;1.14;80.99;100117.80;236107;1197;25235;-73
2021/10/24 03:41:58;;;;;;;15.90;8.70;;;;;;;1.13;81.27;100122.48;235798;1197;22474;-75
2021/10/24 03:47:01;;;;;;;19.30;9.70;;;;;;;1.08;81.06;100130.02;235962;1197;22443;-74
2021/10/24 03:52:05;;;;;;;23.90;13.70;;;;;;;1.01;81.25;100136.27;235956;1184;22416;-75
2021/10/24 03:57:08;;;;;;;23.50;13.50;;;;;;;0.98;81.25;100147.57;235814;1190;24101;-75
2021/10/24 04:02:14;;;;;;;24.40;13.80;;;;;;;0.94;81.04;100144.65;235792;1192;25122;-75
2021/10/24 04:07:30;;;;;;;22.10;11.30;;;;;;;0.88;81.39;100144.68;235589;1198;25312;-74
2021/10/24 04:12:33;;;;;;;19.40;11.10;;;;;;;0.80;81.18;100144.21;235730;1190;25157;-72
2021/10/24 04:17:39;;;;;;;22.50;12.40;;;;;;;0.72;81.44;100142.54;235817;1198;22428;-73
2021/10/24 04:22:41;;;;;;;26.10;13.20;;;;;;;0.65;81.00;100136.83;235694;1193;24107;-73
2021/10/24 04:27:57;;;;;;;24.50;11.70;;;;;;;0.61;81.29;100139.02;235770;1197;24034;-74
2021/10/24 04:33:07;;;;;;;17.90;10.80;;;;;;;0.58;81.18;100143.09;235982;1197;22439;-74
2021/10/24 04:38:20;;;;;;;21.90;12.00;;;;;;;0.54;81.51;100138.27;235741;1198;24150;-74
2021/10/24 04:43:25;;;;;;;24.70;13.60;;;;;;;0.52;81.51;100140.73;235941;1197;24111;-75
2021/10/24 04:48:28;;;;;;;19.20;11.40;;;;;;;0.55;81.87;100145.38;235733;1190;24053;-74
2021/10/24 04:53:32;;;;;;;22.20;11.00;;;;;;;0.56;81.63;100157.40;235616;1190;24082;-74
2021/10/24 04:58:35;;;;;;;22.00;11.50;;;;;;;0.54;81.80;100164.23;235913;1190;24039;-74
2021/10/24 05:03:40;;;;;;;18.80;11.50;;;;;;;0.49;81.74;100163.98;235889;1190;24018;-75
2021/10/24 05:08:42;;;;;;;20.80;11.60;;;;;;;0.46;81.66;100166.99;235809;1197;24640;-75
2021/10/24 05:13:46;;;;;;;18.10;12.00;;;;;;;0.44;81.51;100176.16;235896;1190;24092;-74
2021/10/24 05:18:49;;;;;;;26.00;13.90;;;;;;;0.35;81.46;100177.42;235759;1197;25360;-75
2021/10/24 05:24:05;;;;;;;21.10;12.30;;;;;;;0.25;81.39;100181.48;235775;1190;24421;-75
2021/10/24 05:29:18;;;;;;;30.20;16.30;;;;;;;0.14;81.46;100187.38;235816;1198;24231;-75
2021/10/24 05:34:23;;;;;;;32.40;16.00;;;;;;;0.10;81.56;100192.16;235741;1198;22540;-75
2021/10/24 05:39:42;;;;;;;26.20;13.50;;;;;;;0.14;81.70;100195.40;235805;1197;24044;-75
2021/10/24 05:45:15;;;;;;;28.50;15.90;;;;;;;0.20;81.86;100200.21;235805;1198;24076;-73
2021/10/24 05:50:18;;;;;;;31.60;17.80;;;;;;;0.22;82.06;100201.75;235853;1190;24051;-75
2021/10/24 05:55:21;;;;;;;37.10;21.70;;;;;;;0.28;82.28;100211.64;235989;1190;24978;-73
2021/10/24 06:00:24;;;;;;;37.90;22.00;;;;;;;0.41;82.58;100209.81;235716;1197;25230;-74
2021/10/24 06:05:35;;;;;;;38.70;20.70;;;;;;;0.57;82.78;100215.02;235762;1197;22461;-76
2021/10/24 06:10:51;;;;;;;38.50;21.70;;;;;;;0.69;82.31;100220.79;235751;1197;25777;-73
2021/10/24 06:16:06;;;;;;;33.40;20.40;;;;;;;0.76;82.35;100223.85;235906;1197;24455;-75
2021/10/24 06:21:09;;;;;;;42.50;22.70;;;;;;;0.81;82.41;100229.66;236125;1197;22568;-75
2021/10/24 06:26:15;;;;;;;40.50;21.50;;;;;;;0.91;82.64;100233.61;235836;1190;25041;-75
2021/10/24 06:31:19;;;;;;;45.40;26.30;;;;;;;1.04;82.84;100233.31;235718;1197;24040;-75
2021/10/24 06:36:41;;;;;;;49.10;26.80;;;;;;;1.21;82.59;100239.67;235752;1197;24040;-74
2021/10/24 06:41:59;;;;;;;46.60;25.80;;;;;;;1.47;83.37;100246.05;235884;1197;22444;-73
2021/10/24 06:47:24;;;;;;;54.00;27.60;;;;;;;1.84;83.32;100248.04;235653;1198;24114;-73
2021/10/24 06:52:27;;;;;;;45.10;24.80;;;;;;;2.15;83.53;100249.13;235809;1190;24069;-74
2021/10/24 06:57:53;;;;;;;47.80;23.90;;;;;;;2.45;83.25;100254.54;235756;1197;24187;-72
2021/10/24 07:03:26;;;;;;;34.90;21.10;;;;;;;2.69;83.15;100262.64;235775;1197;24044;-73
2021/10/24 07:09:07;;;;;;;39.40;20.80;;;;;;;2.92;83.10;100264.27;234730;1201;22497;-74
2021/10/24 07:14:23;;;;;;;38.20;21.10;;;;;;;3.12;82.77;100264.28;235580;1197;25157;-74
2021/10/24 07:19:37;;;;;;;39.20;21.40;;;;;;;3.29;82.27;100271.14;235715;1198;24050;-75
2021/10/24 07:24:55;;;;;;;37.80;22.00;;;;;;;3.46;82.21;100269.23;236012;1197;25129;-73
2021/10/24 07:29:58;;;;;;;43.00;25.70;;;;;;;3.67;82.30;100269.90;236036;1190;24076;-73
2021/10/24 07:35:04;;;;;;;40.90;23.40;;;;;;;3.93;82.50;100283.29;236158;1197;22456;-75
2021/10/24 07:40:08;;;;;;;38.80;20.00;;;;;;;4.18;82.35;100281.78;235895;1193;22438;-73
2021/10/24 07:45:10;;;;;;;24.70;13.60;;;;;;;4.47;82.40;100290.95;235974;1197;22439;-76
2021/10/24 07:50:13;;;;;;;26.30;14.20;;;;;;;4.69;81.70;100294.33;235950;1197;24047;-76
2021/10/24 07:55:18;;;;;;;27.10;11.90;;;;;;;4.84;81.45;100296.41;235838;1197;24075;-75
2021/10/24 08:00:28;;;;;;;19.50;10.80;;;;;;;5.00;81.13;100303.91;235840;1197;24171;-75
2021/10/24 08:05:32;;;;;;;19.30;9.80;;;;;;;5.18;81.16;100302.45;236023;1193;26279;-73
2021/10/24 08:10:35;;;;;;;18.80;10.70;;;;;;;5.36;80.93;100299.91;236004;1197;22443;-76
2021/10/24 08:15:38;;;;;;;21.60;12.60;;;;;;;5.60;80.75;100300.81;235768;1197;24078;-73
2021/10/24 08:20:45;;;;;;;17.80;9.80;;;;;;;5.84;80.80;100306.01;235708;1197;25305;-75
2021/10/24 08:25:49;;;;;;;15.80;9.40;;;;;;;6.09;80.56;100309.71;236003;1197;22600;-75
2021/10/24 08:30:52;;;;;;;19.10;9.70;;;;;;;6.24;80.02;100315.95;235798;1190;22449;-77
2021/10/24 08:36:10;;;;;;;16.30;9.00;;;;;;;6.48;80.38;100315.46;235834;1197;24235;-75
2021/10/24 08:41:13;;;;;;;13.40;6.80;;;;;;;6.72;79.86;100325.17;235809;1198;24034;-75
2021/10/24 08:46:18;;;;;;;12.60;8.00;;;;;;;6.83;79.21;100327.83;235949;1190;24264;-73
2021/10/24 08:51:21;;;;;;;12.20;5.80;;;;;;;6.97;79.32;100329.43;235876;1191;22419;-74
2021/10/24 08:56:26;;;;;;;14.50;6.80;;;;;;;7.03;78.45;100328.61;235872;1197;26193;-73
2021/10/24 09:01:30;;;;;;;13.80;5.90;;;;;;;7.06;78.30;100326.46;235824;1197;24057;-75
2021/10/24 09:06:55;;;;;;;12.50;6.20;;;;;;;7.23;78.46;100330.42;236057;1197;24193;-73
2021/10/24 09:12:17;;;;;;;12.50;5.80;;;;;;;7.33;77.75;100334.03;235850;1197;22555;-75
2021/10/24 09:17:30;;;;;;;12.20;6.90;;;;;;;7.40;77.33;100339.56;235799;1190;24092;-74
2021/10/24 09:22:38;;;;;;;15.20;7.30;;;;;;;7.62;78.00;100337.44;236029;1190;22447;-75
2021/10/24 09:28:00;;;;;;;15.20;8.30;;;;;;;7.85;77.47;100333.21;236079;1190;24015;-74
2021/10/24 09:33:05;;;;;;;11.00;5.80;;;;;;;8.22;77.75;100337.67;235992;1190;24159;-74
2021/10/24 09:38:15;;;;;;;13.60;5.70;;;;;;;8.46;76.29;100340.27;235752;1197;25129;-76
2021/10/24 09:43:31;;;;;;;10.20;5.20;;;;;;;8.63;75.37;100341.23;235898;1198;24053;-75
2021/10/24 09:48:37;;;;;;;12.10;5.50;;;;;;;8.72;74.81;100337.39;235715;1184;24012;-75
2021/10/24 09:53:42;;;;;;;11.00;5.40;;;;;;;8.91;74.80;100330.99;235762;1197;22499;-74
2021/10/24 09:58:49;;;;;;;10.50;5.50;;;;;;;8.83;73.49;100330.27;236012;1197;24094;-76
2021/10/24 10:03:51;;;;;;;14.10;5.90;;;;;;;8.69;73.25;100327.72;235895;1193;23991;-75
2021/10/24 10:08:58;;;;;;;16.00;9.50;;;;;;;8.55;73.11;100325.02;236324;1196;25178;-73
2021/10/24 10:14:06;;;;;;;12.30;4.80;;;;;;;8.56;73.23;100323.02;236150;1190;25010;-75
2021/10/24 10:19:11;;;;;;;13.30;5.30;;;;;;;8.56;73.31;100325.47;235883;1197;22460;-75
2021/10/24 10:24:35;;;;;;;15.90;6.80;;;;;;;8.59;73.31;100325.65;235588;1193;22544;-72
2021/10/24 10:29:50;;;;;;;11.50;4.30;;;;;;;8.81;73.58;100316.85;235936;1190;25054;-74
2021/10/24 10:35:11;;;;;;;11.00;4.20;;;;;;;9.00;72.96;100313.06;235754;1197;22416;-73
2021/10/24 10:40:24;;;;;;;9.50;4.10;;;;;;;9.04;72.49;100303.02;235826;1197;24187;-75
2021/10/24 10:45:43;;;;;;;9.00;4.40;;;;;;;9.15;72.42;100300.69;235807;1197;24035;-74
2021/10/24 10:50:48;;;;;;;12.20;4.40;;;;;;;9.52;72.51;100298.08;236003;1190;24014;-73
2021/10/24 10:55:57;;;;;;;12.10;4.60;;;;;;;9.97;72.28;100296.00;235757;1190;24054;-74
2021/10/24 11:01:00;;;;;;;9.90;5.10;;;;;;;10.41;70.86;100295.48;235846;1190;24002;-73
2021/10/24 11:06:40;;;;;;;13.00;5.60;;;;;;;10.68;69.77;100297.98;236069;1190;25009;-75
2021/10/24 11:12:06;;;;;;;15.40;6.30;;;;;;;11.01;69.06;100289.47;236025;1197;24075;-74
2021/10/24 11:17:38;;;;;;;9.40;5.10;;;;;;;11.32;67.90;100289.46;236013;1197;23676;-74
2021/10/24 11:22:54;;;;;;;;;;;;;;;11.64;66.22;100276.61;235966;1198;22428;-76
2021/10/24 11:28:30;;;;;;;11.90;5.70;;;;;;;11.75;65.38;100266.42;235929;1197;22551;-77
2021/10/24 11:33:46;;;;;;;10.20;4.80;;;;;;;11.80;64.37;100260.59;236041;1193;22426;-75
2021/10/24 11:38:55;;;;;;;7.70;4.10;;;;;;;11.71;63.82;100256.77;235989;1190;22553;-77
2021/10/24 11:44:11;;;;;;;12.30;5.50;;;;;;;11.72;63.17;100256.30;236210;1190;22499;-75
2021/10/24 11:49:14;;;;;;;16.00;6.50;;;;;;;11.55;61.23;100251.64;236110;1196;24072;-77
2021/10/24 11:54:16;;;;;;;16.50;8.50;;;;;;;11.31;60.66;100252.97;235891;1190;22429;-76
2021/10/24 11:59:35;;;;;;;14.50;7.60;;;;;;;11.11;61.58;100250.61;235774;1184;24052;-76
2021/10/24 12:05:12;;;;;;;11.70;6.60;;;;;;;11.21;62.66;100250.96;235840;1193;24085;-76
2021/10/24 12:10:39;;;;;;;11.90;6.90;;;;;;;11.18;60.91;100246.05;235847;1190;24062;-78
2021/10/24 12:15:43;;;;;;;12.00;6.70;;;;;;;11.03;61.18;100239.71;235974;1198;22550;-75
2021/10/24 12:21:00;;;;;;;14.60;6.60;;;;;;;11.02;61.56;100234.83;235924;1190;24187;-76
2021/10/24 12:26:07;;;;;;;10.70;5.30;;;;;;;11.07;61.41;100233.64;236076;1193;25119;-76
2021/10/24 12:31:25;;;;;;;8.70;4.20;;;;;;;11.06;61.21;100225.63;236261;1197;22481;-75
2021/10/24 12:36:32;;;;;;;10.30;4.30;;;;;;;11.09;60.76;100225.98;236231;1197;25045;-75
2021/10/24 12:41:45;;;;;;;15.90;5.10;;;;;;;11.01;59.95;100219.27;236016;1197;24050;-76
2021/10/24 12:46:48;;;;;;;8.80;4.10;;;;;;;11.00;60.56;100215.94;236099;1197;22473;-75
2021/10/24 12:52:09;;;;;;;9.50;3.60;;;;;;;11.01;59.89;100216.20;235945;1197;22462;-76
2021/10/24 12:57:12;;;;;;;7.90;3.60;;;;;;;10.86;58.81;100207.61;235827;1184;25383;-76
2021/10/24 13:02:15;;;;;;;7.50;3.40;;;;;;;10.71;58.71;100208.11;235939;1174;25180;-75
2021/10/24 13:07:31;;;;;;;7.80;3.00;;;;;;;10.65;58.84;100201.15;235948;1197;24085;-75
2021/10/24 13:12:42;;;;;;;8.60;3.30;;;;;;;10.64;59.17;100198.51;236008;1197;22478;-75
2021/10/24 13:17:49;;;;;;;7.50;3.00;;;;;;;10.67;59.97;100197.95;236256;1197;24680;-76
2021/10/24 13:22:55;;;;;;;6.30;3.80;;;;;;;10.69;59.66;100192.88;236205;1197;22447;-76
2021/10/24 13:27:59;;;;;;;7.60;3.40;;;;;;;10.68;59.68;100183.42;236044;1197;25174;-75
2021/10/24 13:33:02;;;;;;;8.50;3.60;;;;;;;10.64;59.22;100187.36;235864;1197;25263;-76
2021/10/24 13:38:05;;;;;;;12.40;5.90;;;;;;;10.52;58.73;100176.85;236037;1198;24148;-74
2021/10/24 13:43:08;;;;;;;8.60;4.50;;;;;;;10.39;59.05;100171.59;236015;1198;24063;-76
2021/10/24 13:48:29;;;;;;;7.30;4.00;;;;;;;10.31;59.15;100168.79;236197;1190;24047;-75
2021/10/24 13:53:45;;;;;;;7.10;3.70;;;;;;;10.20;59.05;100161.82;236283;1197;24261;-75
2021/10/24 13:58:48;;;;;;;9.60;4.30;;;;;;;10.07;58.95;100163.19;236338;1197;22449;-76
2021/10/24 14:03:58;;;;;;;10.70;3.90;;;;;;;10.02;59.54;100158.57;235924;1197;24030;-74
2021/10/24 14:09:14;;;;;;;10.10;4.90;;;;;;;9.97;59.80;100151.99;236271;1197;24037;-74
2021/10/24 14:14:19;;;;;;;9.80;4.10;;;;;;;9.94;60.14;100145.05;236211;1190;26329;-75
2021/10/24 14:19:22;;;;;;;10.20;4.30;;;;;;;9.91;60.11;100133.40;236174;1198;22450;-75
2021/10/24 14:24:37;;;;;;;8.20;3.90;;;;;;;9.85;59.87;100125.58;236022;1190;22655;-77
2021/10/24 14:29:40;;;;;;;6.90;3.30;;;;;;;9.81;59.53;100126.11;236195;1197;25259;-75
2021/10/24 14:34:44;;;;;;;10.00;3.70;;;;;;;9.76;59.05;100114.44;236035;1197;22573;-74
2021/10/24 14:39:50;;;;;;;10.10;3.70;;;;;;;9.70;59.49;100115.65;235945;1198;24054;-73
2021/10/24 14:44:54;;;;;;;9.60;4.00;;;;;;;9.63;59.72;100108.71;235990;1191;24596;-75
2021/10/24 14:49:59;;;;;;;7.70;3.30;;;;;;;9.54;59.55;100103.79;235874;1184;24302;-75
2021/10/24 14:55:18;;;;;;;9.60;3.70;;;;;;;9.42;59.33;100096.69;235964;1190;25304;-74
2021/10/24 15:00:42;;;;;;;10.80;4.40;;;;;;;9.25;59.44;100085.98;236046;1192;22509;-75
2021/10/24 15:05:45;;;;;;;7.90;3.90;;;;;;;9.07;60.10;100072.80;236243;1198;25220;-79
2021/10/24 15:10:49;;;;;;;8.50;3.90;;;;;;;8.89;60.62;100070.20;235819;1198;22556;-75
2021/10/24 15:21:11;;;;;;;12.40;5.30;;;;;;;8.55;61.71;100063.96;236192;1197;24046;-76
2021/10/24 15:26:16;;;;;;;19.00;8.80;;;;;;;8.39;62.22;100059.78;236122;1197;22561;-79
2021/10/24 15:31:22;;;;;;;13.20;5.70;;;;;;;8.25;62.98;100059.82;236167;1198;22429;-76
2021/10/24 15:36:26;;;;;;;16.50;7.20;;;;;;;8.09;63.19;100054.52;236081;1198;22437;-75
2021/10/24 15:41:30;;;;;;;15.00;7.20;;;;;;;7.90;63.48;100052.11;236077;1190;22504;-77
2021/10/24 15:46:40;;;;;;;14.80;7.90;;;;;;;7.69;63.88;100047.34;235853;1197;22421;-77
2021/10/24 15:51:44;;;;;;;14.60;7.90;;;;;;;7.44;64.22;100044.52;236019;1197;22444;-75
2021/10/24 15:56:46;;;;;;;31.90;14.10;;;;;;;7.21;64.63;100039.67;235875;1198;22438;-75
2021/10/24 16:01:49;;;;;;;32.90;17.20;;;;;;;7.02;65.12;100043.49;235966;1198;25160;-73
2021/10/24 16:06:58;;;;;;;37.10;20.30;;;;;;;6.87;65.41;100040.72;235960;1196;24657;-74
2021/10/24 16:12:01;;;;;;;40.70;23.50;;;;;;;6.77;65.94;100041.77;236119;1190;24068;-75
2021/10/24 16:17:04;;;;;;;37.90;21.80;;;;;;;6.66;66.53;100036.98;236149;1197;24057;-74
2021/10/24 16:22:07;;;;;;;47.30;23.70;;;;;;;6.52;66.64;100035.67;236113;1190;24060;-75
2021/10/24 16:27:23;;;;;;;56.70;28.80;;;;;;;6.36;67.01;100034.16;236110;1184;22620;-74
2021/10/24 16:32:43;;;;;;;65.50;30.60;;;;;;;6.21;67.42;100041.44;236029;1197;22442;-78
2021/10/24 16:37:45;;;;;;;61.00;32.50;;;;;;;6.11;67.55;100044.30;236266;1191;24047;-76
2021/10/24 16:42:49;;;;;;;66.10;32.10;;;;;;;6.04;68.10;100040.36;235996;1198;24687;-76
2021/10/24 16:48:06;;;;;;;75.10;34.50;;;;;;;5.97;68.25;100041.82;236124;1196;22440;-77
2021/10/24 16:53:09;;;;;;;66.20;30.40;;;;;;;5.86;68.55;100037.20;236020;1198;22453;-76
2021/10/24 16:58:12;;;;;;;71.90;31.50;;;;;;;5.76;68.60;100030.45;236090;1198;22563;-76
2021/10/24 17:03:14;;;;;;;71.90;31.70;;;;;;;5.71;68.59;100031.44;236932;1184;24048;-78
2021/10/24 17:08:37;;;;;;;67.50;32.80;;;;;;;5.67;68.75;100032.52;236033;1190;25197;-76
2021/10/24 17:13:40;;;;;;;77.90;35.90;;;;;;;5.63;68.95;100031.38;236116;1190;24183;-77
2021/10/24 17:18:49;;;;;;;71.60;31.90;;;;;;;5.54;69.25;100025.73;235967;1197;24005;-76
2021/10/24 17:24:10;;;;;;;68.40;30.00;;;;;;;5.40;69.12;100021.57;236389;1196;22441;-73
2021/10/24 17:29:13;;;;;;;60.70;27.20;;;;;;;5.28;69.35;100017.50;236126;1197;24103;-76
2021/10/24 17:34:16;;;;;;;60.00;28.60;;;;;;;5.18;69.85;100014.27;236170;1184;25479;-77
2021/10/24 17:39:20;;;;;;;58.00;28.30;;;;;;;5.13;69.99;100006.89;236043;1198;24010;-76
2021/10/24 17:44:23;;;;;;;57.90;26.80;;;;;;;5.06;70.30;100007.91;236096;1198;22540;-76
2021/10/24 17:49:26;;;;;;;76.20;33.80;;;;;;;4.97;70.22;100003.92;236100;1193;24085;-77
2021/10/24 17:54:29;;;;;;;67.20;33.80;;;;;;;4.85;70.19;99992.48;236282;1197;24095;-76
2021/10/24 17:59:32;;;;;;;79.10;35.00;;;;;;;4.77;70.61;99991.30;236200;1190;22459;-76
2021/10/24 18:04:35;;;;;;;77.40;34.10;;;;;;;4.69;70.65;99983.93;236028;1198;22467;-76
2021/10/24 18:09:37;;;;;;;61.50;30.10;;;;;;;4.60;70.82;99985.75;236003;1195;24031;-75
2021/10/24 18:14:41;;;;;;;62.40;30.20;;;;;;;4.47;70.70;99979.45;235957;1190;24042;-74
2021/10/24 18:19:44;;;;;;;52.50;27.10;;;;;;;4.35;70.96;99972.78;236034;1198;24155;-76
2021/10/24 18:24:50;;;;;;;58.70;29.00;;;;;;;4.23;70.94;99967.90;236112;1197;24024;-77
2021/10/24 18:30:07;;;;;;;57.20;28.90;;;;;;;4.10;71.01;99961.48;236520;1196;24177;-77
2021/10/24 18:35:10;;;;;;;56.10;28.50;;;;;;;3.99;71.37;99962.19;236287;1197;22706;-74
2021/10/24 18:40:14;;;;;;;56.60;28.30;;;;;;;3.87;71.55;99960.64;236095;1197;22562;-75
2021/10/24 18:45:19;;;;;;;57.40;28.10;;;;;;;3.79;71.84;99961.80;236222;1190;22851;-76
2021/10/24 18:50:25;;;;;;;62.20;31.00;;;;;;;3.74;72.20;99960.75;236191;1190;22559;-76
2021/10/24 18:55:29;;;;;;;76.30;35.70;;;;;;;3.71;72.46;99958.23;236030;1197;25192;-78
2021/10/24 19:00:31;;;;;;;78.40;35.30;;;;;;;3.67;72.41;99958.89;236039;1193;24143;-75
2021/10/24 19:05:35;;;;;;;71.30;33.00;;;;;;;3.60;72.30;99959.46;236267;1190;24083;-76
2021/10/24 19:10:40;;;;;;;74.10;35.10;;;;;;;3.54;72.62;99961.29;236118;1197;24450;-74
2021/10/24 19:15:45;;;;;;;66.50;31.30;;;;;;;3.49;72.86;99957.61;236201;1197;24163;-76
2021/10/24 19:20:50;;;;;;;61.20;29.10;;;;;;;3.42;72.76;99967.56;235904;1177;22422;-74
2021/10/24 19:25:55;;;;;;;57.00;27.50;;;;;;;3.35;72.90;99963.92;236107;1197;24063;-76
2021/10/24 19:31:00;;;;;;;60.70;28.40;;;;;;;3.30;72.92;99967.04;236189;1194;22465;-76
2021/10/24 19:36:05;;;;;;;64.40;29.10;;;;;;;3.25;73.13;99962.23;236087;1190;22436;-76
2021/10/24 19:41:12;;;;;;;62.60;28.90;;;;;;;3.17;73.29;99962.24;235973;1197;24064;-77
2021/10/24 19:46:15;;;;;;;60.30;28.70;;;;;;;3.12;73.38;99960.73;236057;1197;22580;-76
2021/10/24 19:51:18;;;;;;;60.20;29.60;;;;;;;3.04;73.35;99960.55;236354;1183;24053;-76
2021/10/24 19:56:30;;;;;;;59.90;28.30;;;;;;;3.00;73.55;99959.63;236316;1197;24391;-74
2021/10/24 20:01:33;;;;;;;62.40;28.20;;;;;;;2.97;73.65;99962.94;236188;1197;22454;-76
2021/10/24 20:06:36;;;;;;;56.40;26.80;;;;;;;2.93;73.72;99962.95;236057;1190;22483;-75
2021/10/24 20:11:39;;;;;;;62.70;26.80;;;;;;;2.92;73.74;99957.90;236135;1197;24050;-76
2021/10/24 20:16:43;;;;;;;53.30;23.70;;;;;;;2.93;73.81;99958.84;236036;1198;22497;-77
2021/10/24 20:21:46;;;;;;;56.20;28.50;;;;;;;2.97;74.16;99961.79;236012;1198;22419;-73
2021/10/24 20:26:49;;;;;;;60.40;27.20;;;;;;;3.00;74.32;99958.45;236091;1197;24084;-76
2021/10/24 20:32:05;;;;;;;56.00;28.50;;;;;;;2.97;74.14;99953.73;236132;1190;24161;-77
2021/10/24 20:37:34;;;;;;;58.80;26.00;;;;;;;2.92;74.10;99952.61;235787;1198;24222;-76
2021/10/24 20:42:37;;;;;;;61.40;26.80;;;;;;;2.93;74.24;99953.79;236046;1197;26339;-76
2021/10/24 20:47:41;;;;;;;51.00;23.70;;;;;;;2.94;74.52;99953.79;235923;1197;22537;-76
2021/10/24 20:52:43;;;;;;;44.20;18.80;;;;;;;2.92;74.33;99957.62;235972;1198;24054;-76
2021/10/24 20:57:55;;;;;;;41.70;20.00;;;;;;;2.80;73.88;99957.77;236125;1194;22446;-75
2021/10/24 21:03:10;;;;;;;43.80;21.10;;;;;;;2.72;74.10;99956.70;236167;1190;24074;-75
2021/10/24 21:08:14;;;;;;;48.10;21.70;;;;;;;2.68;74.31;99951.81;236056;1198;22641;-75
2021/10/24 21:13:18;;;;;;;42.50;21.20;;;;;;;2.63;74.59;99949.52;236057;1183;25231;-75
2021/10/24 21:18:22;;;;;;;45.40;19.80;;;;;;;2.58;74.74;99947.16;236240;1190;24148;-75
2021/10/24 21:23:24;;;;;;;45.10;21.80;;;;;;;2.52;74.63;99939.69;236170;1197;23678;-76
2021/10/24 21:28:31;;;;;;;43.10;21.20;;;;;;;2.46;74.63;99938.84;236170;1190;24047;-76
2021/10/24 21:33:34;;;;;;;45.50;23.20;;;;;;;2.41;74.81;99937.67;236240;1197;24008;-76
2021/10/24 21:38:38;;;;;;;44.30;22.40;;;;;;;2.37;74.89;99939.91;236348;1197;24084;-78
2021/10/24 21:43:43;;;;;;;51.10;22.20;;;;;;;2.35;75.14;99939.63;236163;1197;24161;-78
2021/10/24 21:48:46;;;;;;;48.10;23.80;;;;;;;2.30;75.04;99939.77;236158;1198;26264;-74
2021/10/24 21:53:50;;;;;;;50.90;24.10;;;;;;;2.27;75.30;99938.73;236110;1193;22485;-76
2021/10/24 21:58:52;;;;;;;46.70;22.90;;;;;;;2.25;75.32;99944.16;236187;1190;24579;-75
2021/10/24 22:03:55;;;;;;;42.40;21.60;;;;;;;2.16;75.32;99942.81;235823;1198;22957;-77
2021/10/24 22:08:58;;;;;;;43.00;21.10;;;;;;;2.10;75.45;99941.89;235822;1190;22624;-76
2021/10/24 22:14:02;;;;;;;41.20;20.70;;;;;;;2.04;75.47;99941.12;236036;1193;22808;-77
2021/10/24 22:19:05;;;;;;;43.80;21.20;;;;;;;2.01;75.60;99941.39;236243;1190;25179;-76
2021/10/24 22:24:07;;;;;;;53.00;23.20;;;;;;;2.02;75.82;99935.42;236248;1190;23499;-78
2021/10/24 22:29:10;;;;;;;54.50;25.90;;;;;;;2.03;76.05;99934.58;235947;1197;22548;-74
2021/10/24 22:34:14;;;;;;;56.90;27.50;;;;;;;2.03;76.28;99940.23;235991;1198;22442;-75
2021/10/24 22:39:23;;;;;;;53.20;25.80;;;;;;;2.04;76.49;99942.79;236082;1197;24101;-74
2021/10/24 22:44:26;;;;;;;50.80;23.20;;;;;;;2.04;76.43;99938.06;236127;1197;25242;-77
2021/10/24 22:49:29;;;;;;;53.50;23.20;;;;;;;2.04;76.51;99934.77;236002;1198;24944;-76
2021/10/24 22:54:32;;;;;;;51.90;23.40;;;;;;;2.03;76.38;99926.57;236172;1197;24932;-77
2021/10/24 22:59:35;;;;;;;47.50;21.70;;;;;;;2.02;76.46;99923.30;236331;1190;24017;-74
2021/10/24 23:04:38;;;;;;;42.10;20.50;;;;;;;2.02;76.64;99916.80;235990;1197;24203;-75
2021/10/24 23:09:40;;;;;;;36.20;19.40;;;;;;;2.06;76.80;99915.20;236066;1197;23583;-75
2021/10/24 23:14:49;;;;;;;40.30;19.90;;;;;;;2.14;76.89;99917.81;236039;1190;24078;-76
2021/10/24 23:19:53;;;;;;;53.80;25.40;;;;;;;2.17;76.78;99918.90;236313;1190;24043;-76
2021/10/24 23:24:57;;;;;;;50.40;24.90;;;;;;;2.15;76.51;99918.08;236139;1198;24059;-76
2021/10/24 23:30:00;;;;;;;41.00;21.80;;;;;;;2.04;75.97;99914.48;236124;1190;22470;-77
2021/10/24 23:35:17;;;;;;;45.90;22.70;;;;;;;1.93;76.09;99912.45;236041;1197;24036;-76